Terminal Aerodrome Forecast
Issued by NWS Brownsville, TX

Home | Current Version | Previous Version | Text Only | Print | Product List | Glossary On
Versions: 1 2 3 4 5 6 7 8 9 10 11 12 13 14 15 16 17 18 19 20 21 22 23 24 25 26 27 28 29
540
FTUS44 KBRO 240546 CCA
TAFHRL
TAF COR
KHRL 240546Z 2406/2506 14011KT P6SM SCT017 BKN024
      TEMPO 2410/2414 3SM BR BKN015
     FM241500 14015G22KT P6SM BKN025
     FM241600 15015G25KT P6SM SCT025 BKN040
     FM250500 14011KT P6SM BKN007=

USA.gov is the U.S. government's official web portal to all federal, state and local government web resources and services.